sensor_id;sensor_type;location;lat;lon;timestamp;temperature;humidity
1091;DHT22;534;48.704;9.122;2024-03-22T05:01:02;11.70;78.40
1091;DHT22;534;48.704;9.122;2024-03-22T05:03:29;11.70;78.70
1091;DHT22;534;48.704;9.122;2024-03-22T05:05:55;11.70;78.50
1091;DHT22;534;48.704;9.122;2024-03-22T05:08:23;11.70;78.40
1091;DHT22;534;48.704;9.122;2024-03-22T05:10:48;11.80;78.40
1091;DHT22;534;48.704;9.122;2024-03-22T05:13:15;11.70;78.40
1091;DHT22;534;48.704;9.122;2024-03-22T05:15:41;11.70;78.60
1091;DHT22;534;48.704;9.122;2024-03-22T05:18:09;11.70;78.60
1091;DHT22;534;48.704;9.122;2024-03-22T05:20:35;11.80;78.30
1091;DHT22;534;48.704;9.122;2024-03-22T05:23:02;11.80;78.30
1091;DHT22;534;48.704;9.122;2024-03-22T05:25:28;11.90;78.10
1091;DHT22;534;48.704;9.122;2024-03-22T05:27:54;11.90;78.10
1091;DHT22;534;48.704;9.122;2024-03-22T05:30:20;11.80;78.10
1091;DHT22;534;48.704;9.122;2024-03-22T05:32:47;11.90;78.00
1091;DHT22;534;48.704;9.122;2024-03-22T05:35:16;11.90;78.00
1091;DHT22;534;48.704;9.122;2024-03-22T05:37:43;11.90;77.90
1091;DHT22;534;48.704;9.122;2024-03-22T05:40:10;12.00;77.80
1091;DHT22;534;48.704;9.122;2024-03-22T05:42:37;12.00;77.90
1091;DHT22;534;48.704;9.122;2024-03-22T05:45:03;12.10;77.60
1091;DHT22;534;48.704;9.122;2024-03-22T05:47:30;12.20;77.40
1091;DHT22;534;48.704;9.122;2024-03-22T05:49:56;12.40;77.00
1091;DHT22;534;48.704;9.122;2024-03-22T05:52:24;12.50;76.90
1091;DHT22;534;48.704;9.122;2024-03-22T05:54:50;12.70;76.20
1091;DHT22;534;48.704;9.122;2024-03-22T05:57:17;12.80;75.60
1091;DHT22;534;48.704;9.122;2024-03-22T05:59:42;12.80;75.60
1091;DHT22;534;48.704;9.122;2024-03-22T06:02:09;12.80;75.50
1091;DHT22;534;48.704;9.122;2024-03-22T06:04:35;12.90;75.50
1091;DHT22;534;48.704;9.122;2024-03-22T06:07:02;13.00;75.30
1091;DHT22;534;48.704;9.122;2024-03-22T06:09:31;13.20;75.00
1091;DHT22;534;48.704;9.122;2024-03-22T06:12:03;13.20;74.80
1091;DHT22;534;48.704;9.122;2024-03-22T06:14:29;13.20;75.00
1091;DHT22;534;48.704;9.122;2024-03-22T06:16:56;13.10;75.20
1091;DHT22;534;48.704;9.122;2024-03-22T06:19:21;13.00;75.30
1091;DHT22;534;48.704;9.122;2024-03-22T06:21:48;12.90;75.60
1091;DHT22;534;48.704;9.122;2024-03-22T06:24:14;13.00;75.70
1091;DHT22;534;48.704;9.122;2024-03-22T06:26:42;13.30;76.10
1091;DHT22;534;48.704;9.122;2024-03-22T06:29:08;14.00;74.20
1091;DHT22;534;48.704;9.122;2024-03-22T06:31:34;15.00;71.00
1091;DHT22;534;48.704;9.122;2024-03-22T06:34:00;15.40;68.50
1091;DHT22;534;48.704;9.122;2024-03-22T06:36:28;15.50;69.10
1091;DHT22;534;48.704;9.122;2024-03-22T06:38:54;16.00;67.70
1091;DHT22;534;48.704;9.122;2024-03-22T06:41:22;16.40;66.60
1091;DHT22;534;48.704;9.122;2024-03-22T06:43:49;17.00;65.10
1091;DHT22;534;48.704;9.122;2024-03-22T06:46:15;17.70;63.60
1091;DHT22;534;48.704;9.122;2024-03-22T06:48:41;18.10;62.20
1091;DHT22;534;48.704;9.122;2024-03-22T06:51:08;18.40;61.30
1091;DHT22;534;48.704;9.122;2024-03-22T06:53:33;18.70;61.40
1091;DHT22;534;48.704;9.122;2024-03-22T06:56:00;19.30;60.60
1091;DHT22;534;48.704;9.122;2024-03-22T06:58:26;19.50;58.30
1091;DHT22;534;48.704;9.122;2024-03-22T07:00:54;19.40;58.40
1091;DHT22;534;48.704;9.122;2024-03-22T07:03:19;19.40;58.60
1091;DHT22;534;48.704;9.122;2024-03-22T07:05:47;19.40;59.00
1091;DHT22;534;48.704;9.122;2024-03-22T07:08:12;19.50;58.60
1091;DHT22;534;48.704;9.122;2024-03-22T07:10:39;19.70;58.20
1091;DHT22;534;48.704;9.122;2024-03-22T07:13:05;19.70;57.90
1091;DHT22;534;48.704;9.122;2024-03-22T07:15:32;20.10;57.60
1091;DHT22;534;48.704;9.122;2024-03-22T07:17:59;20.80;55.60
1091;DHT22;534;48.704;9.122;2024-03-22T07:20:26;21.20;54.30
1091;DHT22;534;48.704;9.122;2024-03-22T07:22:51;20.70;54.50
1091;DHT22;534;48.704;9.122;2024-03-22T07:25:18;19.80;56.60
1091;DHT22;534;48.704;9.122;2024-03-22T07:27:44;19.80;58.00
1091;DHT22;534;48.704;9.122;2024-03-22T07:30:12;19.80;58.10
1091;DHT22;534;48.704;9.122;2024-03-22T07:32:37;19.80;57.40
1091;DHT22;534;48.704;9.122;2024-03-22T07:35:06;19.70;58.50
1091;DHT22;534;48.704;9.122;2024-03-22T07:37:33;19.40;58.20
1091;DHT22;534;48.704;9.122;2024-03-22T07:40:01;19.20;59.00
1091;DHT22;534;48.704;9.122;2024-03-22T07:42:26;18.60;60.80
1091;DHT22;534;48.704;9.122;2024-03-22T07:44:53;18.40;61.30
1091;DHT22;534;48.704;9.122;2024-03-22T07:47:18;18.40;61.30
1091;DHT22;534;48.704;9.122;2024-03-22T07:49:45;18.10;62.40
1091;DHT22;534;48.704;9.122;2024-03-22T07:52:13;17.50;64.20
1091;DHT22;534;48.704;9.122;2024-03-22T07:54:40;17.30;65.50
1091;DHT22;534;48.704;9.122;2024-03-22T07:57:05;17.20;66.50
1091;DHT22;534;48.704;9.122;2024-03-22T07:59:32;16.90;67.40
1091;DHT22;534;48.704;9.122;2024-03-22T08:01:58;17.00;67.20
1091;DHT22;534;48.704;9.122;2024-03-22T08:04:24;16.80;67.10
1091;DHT22;534;48.704;9.122;2024-03-22T08:06:50;16.50;67.90
1091;DHT22;534;48.704;9.122;2024-03-22T08:09:19;16.50;68.60
1091;DHT22;534;48.704;9.122;2024-03-22T08:11:45;16.70;69.00
1091;DHT22;534;48.704;9.122;2024-03-22T08:14:12;16.80;67.20
1091;DHT22;534;48.704;9.122;2024-03-22T08:16:37;17.00;67.00
1091;DHT22;534;48.704;9.122;2024-03-22T08:19:04;17.20;66.00
1091;DHT22;534;48.704;9.122;2024-03-22T08:21:30;17.30;67.60
1091;DHT22;534;48.704;9.122;2024-03-22T08:23:56;17.60;66.20
1091;DHT22;534;48.704;9.122;2024-03-22T08:26:23;17.90;65.80
1091;DHT22;534;48.704;9.122;2024-03-22T08:28:50;18.10;63.00
1091;DHT22;534;48.704;9.122;2024-03-22T08:31:16;18.10;63.60
1091;DHT22;534;48.704;9.122;2024-03-22T08:33:45;18.10;63.80
1091;DHT22;534;48.704;9.122;2024-03-22T08:36:10;18.20;64.10
1091;DHT22;534;48.704;9.122;2024-03-22T08:38:37;18.30;64.50
1091;DHT22;534;48.704;9.122;2024-03-22T08:41:03;18.50;64.40
1091;DHT22;534;48.704;9.122;2024-03-22T08:43:31;18.70;64.10
1091;DHT22;534;48.704;9.122;2024-03-22T08:45:57;18.70;62.90
1091;DHT22;534;48.704;9.122;2024-03-22T08:48:23;18.80;63.60
1091;DHT22;534;48.704;9.122;2024-03-22T08:50:49;19.00;62.10
1091;DHT22;534;48.704;9.122;2024-03-22T08:53:15;19.00;60.00
1091;DHT22;534;48.704;9.122;2024-03-22T08:55:45;18.90;60.90
1091;DHT22;534;48.704;9.122;2024-03-22T08:58:13;19.00;59.20
1091;DHT22;534;48.704;9.122;2024-03-22T09:00:40;18.90;58.80
1091;DHT22;534;48.704;9.122;2024-03-22T09:03:07;18.70;59.50
1091;DHT22;534;48.704;9.122;2024-03-22T09:05:33;18.40;60.00
1091;DHT22;534;48.704;9.122;2024-03-22T09:07:59;18.20;60.40
1091;DHT22;534;48.704;9.122;2024-03-22T09:10:26;18.20;60.70
1091;DHT22;534;48.704;9.122;2024-03-22T09:12:53;18.20;60.30
1091;DHT22;534;48.704;9.122;2024-03-22T09:15:18;18.20;60.90
1091;DHT22;534;48.704;9.122;2024-03-22T09:17:46;18.30;60.80
1091;DHT22;534;48.704;9.122;2024-03-22T09:20:12;18.30;60.60
1091;DHT22;534;48.704;9.122;2024-03-22T09:22:39;18.30;56.90
1091;DHT22;534;48.704;9.122;2024-03-22T09:25:05;18.30;57.30
1091;DHT22;534;48.704;9.122;2024-03-22T09:27:32;18.40;57.30
1091;DHT22;534;48.704;9.122;2024-03-22T09:29:58;18.60;57.30
1091;DHT22;534;48.704;9.122;2024-03-22T09:32:26;18.70;56.30
1091;DHT22;534;48.704;9.122;2024-03-22T09:34:53;18.70;56.60
1091;DHT22;534;48.704;9.122;2024-03-22T09:37:20;18.80;53.60
1091;DHT22;534;48.704;9.122;2024-03-22T09:39:46;18.60;55.00
1091;DHT22;534;48.704;9.122;2024-03-22T09:42:16;18.80;54.40
1091;DHT22;534;48.704;9.122;2024-03-22T09:44:46;18.90;55.30
1091;DHT22;534;48.704;9.122;2024-03-22T09:47:14;18.70;53.70
1091;DHT22;534;48.704;9.122;2024-03-22T09:49:40;18.70;54.60
1091;DHT22;534;48.704;9.122;2024-03-22T09:52:12;18.50;56.10
1091;DHT22;534;48.704;9.122;2024-03-22T09:54:38;18.50;55.20
1091;DHT22;534;48.704;9.122;2024-03-22T09:57:05;18.30;55.90
1091;DHT22;534;48.704;9.122;2024-03-22T09:59:32;18.50;56.10
1091;DHT22;534;48.704;9.122;2024-03-22T10:01:59;18.30;55.90
1091;DHT22;534;48.704;9.122;2024-03-22T10:04:26;18.20;56.10
1091;DHT22;534;48.704;9.122;2024-03-22T10:06:53;18.30;55.60
1091;DHT22;534;48.704;9.122;2024-03-22T10:09:28;18.30;56.80
1091;DHT22;534;48.704;9.122;2024-03-22T10:11:55;18.70;55.10
1091;DHT22;534;48.704;9.122;2024-03-22T10:14:21;18.70;56.10
1091;DHT22;534;48.704;9.122;2024-03-22T10:16:50;18.80;55.10
1091;DHT22;534;48.704;9.122;2024-03-22T10:19:16;18.80;54.60
1091;DHT22;534;48.704;9.122;2024-03-22T10:21:43;18.80;52.10
1091;DHT22;534;48.704;9.122;2024-03-22T10:24:09;18.80;52.10
1091;DHT22;534;48.704;9.122;2024-03-22T10:26:37;19.00;53.00
1091;DHT22;534;48.704;9.122;2024-03-22T10:29:05;19.20;53.10
1091;DHT22;534;48.704;9.122;2024-03-22T10:31:34;19.30;53.00
1091;DHT22;534;48.704;9.122;2024-03-22T10:34:01;19.40;53.80
1091;DHT22;534;48.704;9.122;2024-03-22T10:36:29;19.60;54.20
1091;DHT22;534;48.704;9.122;2024-03-22T10:38:57;19.90;53.90
1091;DHT22;534;48.704;9.122;2024-03-22T10:41:25;20.10;53.20
1091;DHT22;534;48.704;9.122;2024-03-22T10:43:52;20.30;53.00
1091;DHT22;534;48.704;9.122;2024-03-22T10:46:20;20.50;52.90
1091;DHT22;534;48.704;9.122;2024-03-22T10:48:47;20.60;52.70
1091;DHT22;534;48.704;9.122;2024-03-22T10:51:14;20.60;51.80
1091;DHT22;534;48.704;9.122;2024-03-22T10:53:42;20.40;53.10
1091;DHT22;534;48.704;9.122;2024-03-22T10:56:08;20.40;53.30
1091;DHT22;534;48.704;9.122;2024-03-22T10:58:39;20.40;52.60
1091;DHT22;534;48.704;9.122;2024-03-22T11:01:06;20.20;55.30
1091;DHT22;534;48.704;9.122;2024-03-22T11:03:47;20.20;55.30
1091;DHT22;534;48.704;9.122;2024-03-22T11:06:13;20.40;53.20
1091;DHT22;534;48.704;9.122;2024-03-22T11:08:41;20.50;50.40
1091;DHT22;534;48.704;9.122;2024-03-22T11:11:10;20.30;51.10
1091;DHT22;534;48.704;9.122;2024-03-22T11:13:36;20.50;50.50
1091;DHT22;534;48.704;9.122;2024-03-22T11:18:34;21.00;49.60
1091;DHT22;534;48.704;9.122;2024-03-22T11:21:00;21.10;49.60
1091;DHT22;534;48.704;9.122;2024-03-22T11:23:26;21.00;48.60
1091;DHT22;534;48.704;9.122;2024-03-22T11:25:53;21.10;50.30
1091;DHT22;534;48.704;9.122;2024-03-22T11:28:18;21.10;50.70
1091;DHT22;534;48.704;9.122;2024-03-22T11:30:45;21.20;49.90
1091;DHT22;534;48.704;9.122;2024-03-22T11:33:11;21.30;51.20
1091;DHT22;534;48.704;9.122;2024-03-22T11:35:39;20.90;50.40
1091;DHT22;534;48.704;9.122;2024-03-22T11:38:05;20.90;51.40
1091;DHT22;534;48.704;9.122;2024-03-22T11:40:32;21.00;50.90
1091;DHT22;534;48.704;9.122;2024-03-22T11:42:59;21.20;52.70
1091;DHT22;534;48.704;9.122;2024-03-22T11:45:28;21.40;50.90
1091;DHT22;534;48.704;9.122;2024-03-22T11:47:53;21.30;48.00
1091;DHT22;534;48.704;9.122;2024-03-22T11:50:20;21.30;49.70
1091;DHT22;534;48.704;9.122;2024-03-22T11:52:48;21.30;49.70
1091;DHT22;534;48.704;9.122;2024-03-22T11:55:15;21.50;47.40
1091;DHT22;534;48.704;9.122;2024-03-22T11:57:40;21.40;47.70
1091;DHT22;534;48.704;9.122;2024-03-22T12:00:08;21.60;47.30
1091;DHT22;534;48.704;9.122;2024-03-22T12:02:35;21.70;46.50
1091;DHT22;534;48.704;9.122;2024-03-22T12:05:03;21.90;46.80
1091;DHT22;534;48.704;9.122;2024-03-22T12:07:29;22.10;46.90
1091;DHT22;534;48.704;9.122;2024-03-22T12:09:57;22.20;47.90
1091;DHT22;534;48.704;9.122;2024-03-22T12:12:23;21.90;48.00
1091;DHT22;534;48.704;9.122;2024-03-22T12:14:50;22.00;47.70
1091;DHT22;534;48.704;9.122;2024-03-22T12:17:16;22.10;48.00
1091;DHT22;534;48.704;9.122;2024-03-22T12:19:43;22.30;47.90
1091;DHT22;534;48.704;9.122;2024-03-22T12:22:09;22.40;48.00
1091;DHT22;534;48.704;9.122;2024-03-22T12:24:36;22.50;48.60
1091;DHT22;534;48.704;9.122;2024-03-22T12:27:04;22.40;47.60
1091;DHT22;534;48.704;9.122;2024-03-22T12:29:32;22.30;47.80
1091;DHT22;534;48.704;9.122;2024-03-22T12:31:59;22.20;47.40
1091;DHT22;534;48.704;9.122;2024-03-22T12:34:27;22.20;47.90
1091;DHT22;534;48.704;9.122;2024-03-22T12:36:54;22.40;47.60
1091;DHT22;534;48.704;9.122;2024-03-22T12:39:20;22.30;48.50
1091;DHT22;534;48.704;9.122;2024-03-22T12:41:47;22.30;48.30
1091;DHT22;534;48.704;9.122;2024-03-22T12:44:15;21.80;48.80
1091;DHT22;534;48.704;9.122;2024-03-22T12:46:41;21.70;49.10
1091;DHT22;534;48.704;9.122;2024-03-22T12:49:08;22.00;50.00
1091;DHT22;534;48.704;9.122;2024-03-22T12:51:35;22.20;50.20
1091;DHT22;534;48.704;9.122;2024-03-22T12:54:01;22.20;49.50
1091;DHT22;534;48.704;9.122;2024-03-22T12:56:28;22.30;48.50
1091;DHT22;534;48.704;9.122;2024-03-22T12:58:54;22.30;48.50
1091;DHT22;534;48.704;9.122;2024-03-22T13:01:22;22.00;49.40
1091;DHT22;534;48.704;9.122;2024-03-22T13:03:48;21.80;49.90
1091;DHT22;534;48.704;9.122;2024-03-22T13:06:14;22.00;49.40
1091;DHT22;534;48.704;9.122;2024-03-22T13:08:40;22.30;49.50
1091;DHT22;534;48.704;9.122;2024-03-22T13:11:07;22.40;49.30
1091;DHT22;534;48.704;9.122;2024-03-22T13:13:34;21.90;49.10
1091;DHT22;534;48.704;9.122;2024-03-22T13:16:01;21.70;49.50
1091;DHT22;534;48.704;9.122;2024-03-22T13:18:29;21.80;49.70
1091;DHT22;534;48.704;9.122;2024-03-22T13:20:56;21.50;48.90
1091;DHT22;534;48.704;9.122;2024-03-22T13:23:22;21.60;50.50
1091;DHT22;534;48.704;9.122;2024-03-22T13:25:49;21.80;50.00
1091;DHT22;534;48.704;9.122;2024-03-22T13:28:14;21.70;49.60
1091;DHT22;534;48.704;9.122;2024-03-22T13:30:45;21.80;49.60
1091;DHT22;534;48.704;9.122;2024-03-22T13:33:11;22.00;49.80
1091;DHT22;534;48.704;9.122;2024-03-22T13:35:39;22.10;50.50
1091;DHT22;534;48.704;9.122;2024-03-22T13:38:06;21.90;49.60
1091;DHT22;534;48.704;9.122;2024-03-22T13:40:38;21.90;50.10
1091;DHT22;534;48.704;9.122;2024-03-22T13:43:05;21.80;50.40
1091;DHT22;534;48.704;9.122;2024-03-22T13:45:32;21.80;49.90
1091;DHT22;534;48.704;9.122;2024-03-22T13:47:58;21.80;49.80
1091;DHT22;534;48.704;9.122;2024-03-22T13:50:25;22.20;48.50
1091;DHT22;534;48.704;9.122;2024-03-22T13:52:52;22.00;49.00
1091;DHT22;534;48.704;9.122;2024-03-22T13:55:18;22.00;48.20
1091;DHT22;534;48.704;9.122;2024-03-22T13:57:44;22.20;47.10
1091;DHT22;534;48.704;9.122;2024-03-22T14:00:12;22.20;47.80
1091;DHT22;534;48.704;9.122;2024-03-22T14:02:40;22.50;46.00
1091;DHT22;534;48.704;9.122;2024-03-22T14:05:06;22.80;46.70
1091;DHT22;534;48.704;9.122;2024-03-22T14:07:34;23.30;46.20
1091;DHT22;534;48.704;9.122;2024-03-22T14:10:02;23.80;44.40
1091;DHT22;534;48.704;9.122;2024-03-22T14:12:28;24.00;44.90
1091;DHT22;534;48.704;9.122;2024-03-22T14:14:55;23.90;42.80
1091;DHT22;534;48.704;9.122;2024-03-22T14:17:20;23.60;43.20
1091;DHT22;534;48.704;9.122;2024-03-22T14:19:47;23.60;43.60
1091;DHT22;534;48.704;9.122;2024-03-22T14:22:13;23.30;43.60
1091;DHT22;534;48.704;9.122;2024-03-22T14:24:39;23.40;44.90
1091;DHT22;534;48.704;9.122;2024-03-22T14:27:07;23.50;44.70
1091;DHT22;534;48.704;9.122;2024-03-22T14:29:33;23.60;44.80
1091;DHT22;534;48.704;9.122;2024-03-22T14:31:59;23.70;44.30
1091;DHT22;534;48.704;9.122;2024-03-22T14:34:25;23.40;44.20
1091;DHT22;534;48.704;9.122;2024-03-22T14:36:51;23.70;43.10
1091;DHT22;534;48.704;9.122;2024-03-22T14:39:18;23.70;43.10
1091;DHT22;534;48.704;9.122;2024-03-22T14:41:44;23.80;42.30
1091;DHT22;534;48.704;9.122;2024-03-22T14:44:11;23.80;42.20
1091;DHT22;534;48.704;9.122;2024-03-22T14:46:37;23.60;42.30
1091;DHT22;534;48.704;9.122;2024-03-22T14:49:04;23.30;43.50
1091;DHT22;534;48.704;9.122;2024-03-22T14:51:30;23.20;45.80
1091;DHT22;534;48.704;9.122;2024-03-22T14:53:57;23.30;47.30
1091;DHT22;534;48.704;9.122;2024-03-22T14:56:22;23.30;47.70
1091;DHT22;534;48.704;9.122;2024-03-22T14:58:49;23.20;47.50
1091;DHT22;534;48.704;9.122;2024-03-22T15:01:17;23.10;47.70
1091;DHT22;534;48.704;9.122;2024-03-22T15:03:44;23.40;47.50
1091;DHT22;534;48.704;9.122;2024-03-22T15:06:10;25.10;45.60
1091;DHT22;534;48.704;9.122;2024-03-22T15:08:36;26.20;42.20
1091;DHT22;534;48.704;9.122;2024-03-22T15:11:02;26.10;41.90
1091;DHT22;534;48.704;9.122;2024-03-22T15:13:29;25.60;41.30
1091;DHT22;534;48.704;9.122;2024-03-22T15:15:56;24.60;43.00
1091;DHT22;534;48.704;9.122;2024-03-22T15:18:24;23.80;44.00
1091;DHT22;534;48.704;9.122;2024-03-22T15:20:52;23.10;44.90
1091;DHT22;534;48.704;9.122;2024-03-22T15:23:18;22.40;45.30
1091;DHT22;534;48.704;9.122;2024-03-22T15:25:46;22.00;46.10
1091;DHT22;534;48.704;9.122;2024-03-22T15:28:13;21.80;46.80
1091;DHT22;534;48.704;9.122;2024-03-22T15:30:40;21.50;47.20
1091;DHT22;534;48.704;9.122;2024-03-22T15:33:07;21.40;47.90
1091;DHT22;534;48.704;9.122;2024-03-22T15:35:36;21.10;47.80
1091;DHT22;534;48.704;9.122;2024-03-22T15:38:03;21.10;47.90
1091;DHT22;534;48.704;9.122;2024-03-22T15:40:30;21.00;48.40
1091;DHT22;534;48.704;9.122;2024-03-22T15:42:57;20.70;48.30
1091;DHT22;534;48.704;9.122;2024-03-22T15:45:24;20.50;49.10
1091;DHT22;534;48.704;9.122;2024-03-22T15:47:49;20.60;49.00
1091;DHT22;534;48.704;9.122;2024-03-22T15:50:16;20.70;49.50
1091;DHT22;534;48.704;9.122;2024-03-22T15:52:44;20.60;48.90
1091;DHT22;534;48.704;9.122;2024-03-22T15:55:10;20.40;48.50
1091;DHT22;534;48.704;9.122;2024-03-22T15:57:37;20.20;49.50
1091;DHT22;534;48.704;9.122;2024-03-22T16:00:05;20.10;49.20
1091;DHT22;534;48.704;9.122;2024-03-22T16:02:31;20.10;50.00
1091;DHT22;534;48.704;9.122;2024-03-22T16:04:57;20.00;49.50
1091;DHT22;534;48.704;9.122;2024-03-22T16:07:23;19.90;49.70
1091;DHT22;534;48.704;9.122;2024-03-22T16:09:52;19.70;49.80
1091;DHT22;534;48.704;9.122;2024-03-22T16:12:18;19.80;49.90
1091;DHT22;534;48.704;9.122;2024-03-22T16:14:44;19.90;50.10
1091;DHT22;534;48.704;9.122;2024-03-22T16:17:10;20.00;50.30
1091;DHT22;534;48.704;9.122;2024-03-22T16:19:37;20.10;49.40
1091;DHT22;534;48.704;9.122;2024-03-22T16:22:04;19.90;49.00
1091;DHT22;534;48.704;9.122;2024-03-22T16:24:31;19.80;49.70
1091;DHT22;534;48.704;9.122;2024-03-22T16:26:58;19.70;50.00
1091;DHT22;534;48.704;9.122;2024-03-22T16:29:25;19.80;50.70
1091;DHT22;534;48.704;9.122;2024-03-22T16:31:51;19.90;49.90
1091;DHT22;534;48.704;9.122;2024-03-22T16:34:17;20.00;50.10
1091;DHT22;534;48.704;9.122;2024-03-22T16:36:43;20.20;50.30
1091;DHT22;534;48.704;9.122;2024-03-22T16:39:10;20.20;49.60
1091;DHT22;534;48.704;9.122;2024-03-22T16:41:35;20.30;49.80
1091;DHT22;534;48.704;9.122;2024-03-22T16:44:04;20.40;49.20
1091;DHT22;534;48.704;9.122;2024-03-22T16:46:30;20.30;49.00
1091;DHT22;534;48.704;9.122;2024-03-22T16:48:56;20.30;49.00
1091;DHT22;534;48.704;9.122;2024-03-22T16:51:22;20.30;49.30
1091;DHT22;534;48.704;9.122;2024-03-22T16:53:49;20.30;49.30
1091;DHT22;534;48.704;9.122;2024-03-22T16:56:15;20.30;49.10
1091;DHT22;534;48.704;9.122;2024-03-22T16:58:41;20.20;49.80
1091;DHT22;534;48.704;9.122;2024-03-22T17:01:08;20.20;49.60
1091;DHT22;534;48.704;9.122;2024-03-22T17:03:36;20.00;50.00
1091;DHT22;534;48.704;9.122;2024-03-22T17:06:02;20.00;50.50
1091;DHT22;534;48.704;9.122;2024-03-22T17:08:30;20.00;50.50
1091;DHT22;534;48.704;9.122;2024-03-22T17:10:55;20.10;50.70
1091;DHT22;534;48.704;9.122;2024-03-22T17:13:22;20.00;50.50
1091;DHT22;534;48.704;9.122;2024-03-22T17:15:48;20.10;50.30
1091;DHT22;534;48.704;9.122;2024-03-22T17:18:20;20.10;49.40
1091;DHT22;534;48.704;9.122;2024-03-22T17:20:45;20.00;48.40
1091;DHT22;534;48.704;9.122;2024-03-22T17:23:12;20.00;47.20
1091;DHT22;534;48.704;9.122;2024-03-22T17:25:38;20.00;47.30
1091;DHT22;534;48.704;9.122;2024-03-22T17:28:05;20.00;47.20
1091;DHT22;534;48.704;9.122;2024-03-22T17:30:32;20.00;47.50
1091;DHT22;534;48.704;9.122;2024-03-22T17:32:59;20.00;47.40
1091;DHT22;534;48.704;9.122;2024-03-22T17:35:26;19.90;47.10
1091;DHT22;534;48.704;9.122;2024-03-22T17:37:54;19.90;47.10
1091;DHT22;534;48.704;9.122;2024-03-22T17:40:19;19.90;47.50
1091;DHT22;534;48.704;9.122;2024-03-22T17:42:46;19.90;47.60
1091;DHT22;534;48.704;9.122;2024-03-22T17:45:12;19.90;47.80
1091;DHT22;534;48.704;9.122;2024-03-22T17:47:39;19.90;47.40
1091;DHT22;534;48.704;9.122;2024-03-22T17:50:05;19.90;49.00
1091;DHT22;534;48.704;9.122;2024-03-22T17:52:34;19.80;49.40
1091;DHT22;534;48.704;9.122;2024-03-22T17:54:59;19.80;49.60
1091;DHT22;534;48.704;9.122;2024-03-22T17:57:26;19.80;49.40
1091;DHT22;534;48.704;9.122;2024-03-22T17:59:54;19.70;50.50
1091;DHT22;534;48.704;9.122;2024-03-22T18:02:20;19.70;50.40
1091;DHT22;534;48.704;9.122;2024-03-22T18:04:46;19.70;51.40
1091;DHT22;534;48.704;9.122;2024-03-22T18:07:13;19.60;52.30
1091;DHT22;534;48.704;9.122;2024-03-22T18:09:40;19.50;52.60
1091;DHT22;534;48.704;9.122;2024-03-22T18:12:07;19.50;52.80
1091;DHT22;534;48.704;9.122;2024-03-22T18:14:33;19.40;53.60
1091;DHT22;534;48.704;9.122;2024-03-22T18:17:00;19.30;54.10
1091;DHT22;534;48.704;9.122;2024-03-22T18:19:26;19.30;54.40
1091;DHT22;534;48.704;9.122;2024-03-22T18:21:53;19.20;54.80
1091;DHT22;534;48.704;9.122;2024-03-22T18:24:20;19.10;55.20
1091;DHT22;534;48.704;9.122;2024-03-22T18:26:48;19.00;55.00
1091;DHT22;534;48.704;9.122;2024-03-22T18:29:14;18.90;54.60
1091;DHT22;534;48.704;9.122;2024-03-22T18:31:41;18.80;55.00
1091;DHT22;534;48.704;9.122;2024-03-22T18:34:07;18.70;55.60
1091;DHT22;534;48.704;9.122;2024-03-22T18:36:33;18.60;55.60
1091;DHT22;534;48.704;9.122;2024-03-22T18:38:59;18.50;55.50
1091;DHT22;534;48.704;9.122;2024-03-22T18:41:26;18.50;55.30
1091;DHT22;534;48.704;9.122;2024-03-22T18:43:54;18.40;55.20
1091;DHT22;534;48.704;9.122;2024-03-22T18:46:20;18.30;56.30
1091;DHT22;534;48.704;9.122;2024-03-22T18:48:46;18.20;56.40
1091;DHT22;534;48.704;9.122;2024-03-22T18:51:13;18.10;56.10
1091;DHT22;534;48.704;9.122;2024-03-22T18:53:39;18.10;56.60
1091;DHT22;534;48.704;9.122;2024-03-22T18:56:06;18.00;56.50
1091;DHT22;534;48.704;9.122;2024-03-22T18:58:32;17.90;56.60
1091;DHT22;534;48.704;9.122;2024-03-22T19:01:01;17.80;57.20
1091;DHT22;534;48.704;9.122;2024-03-22T19:03:27;17.80;57.30
1091;DHT22;534;48.704;9.122;2024-03-22T19:05:54;17.70;57.70
1091;DHT22;534;48.704;9.122;2024-03-22T19:08:20;17.70;58.10
1091;DHT22;534;48.704;9.122;2024-03-22T19:10:47;17.60;58.50
1091;DHT22;534;48.704;9.122;2024-03-22T19:13:13;17.50;58.70
1091;DHT22;534;48.704;9.122;2024-03-22T19:15:40;17.50;59.00
1091;DHT22;534;48.704;9.122;2024-03-22T19:18:09;17.40;59.00
1091;DHT22;534;48.704;9.122;2024-03-22T19:20:36;17.40;59.90
1091;DHT22;534;48.704;9.122;2024-03-22T19:23:02;17.30;60.00
1091;DHT22;534;48.704;9.122;2024-03-22T19:25:29;17.30;60.00
1091;DHT22;534;48.704;9.122;2024-03-22T19:27:55;17.30;60.40
1091;DHT22;534;48.704;9.122;2024-03-22T19:30:22;17.20;60.70
1091;DHT22;534;48.704;9.122;2024-03-22T19:32:48;17.20;60.90
1091;DHT22;534;48.704;9.122;2024-03-22T19:35:16;17.10;60.90
1091;DHT22;534;48.704;9.122;2024-03-22T19:37:42;17.00;60.40
1091;DHT22;534;48.704;9.122;2024-03-22T19:40:09;17.00;60.50
1091;DHT22;534;48.704;9.122;2024-03-22T19:42:36;17.00;60.80
1091;DHT22;534;48.704;9.122;2024-03-22T19:45:03;17.00;61.10
1091;DHT22;534;48.704;9.122;2024-03-22T19:47:30;17.00;60.80
1091;DHT22;534;48.704;9.122;2024-03-22T19:49:57;17.00;60.60
1091;DHT22;534;48.704;9.122;2024-03-22T19:52:24;16.90;61.20
1091;DHT22;534;48.704;9.122;2024-03-22T19:54:50;16.90;61.20
1091;DHT22;534;48.704;9.122;2024-03-22T19:57:16;16.90;60.60
1091;DHT22;534;48.704;9.122;2024-03-22T19:59:43;16.80;61.40
1091;DHT22;534;48.704;9.122;2024-03-22T20:02:09;16.80;61.60
1091;DHT22;534;48.704;9.122;2024-03-22T20:04:36;16.70;61.30
1091;DHT22;534;48.704;9.122;2024-03-22T20:07:01;16.60;61.70
1091;DHT22;534;48.704;9.122;2024-03-22T20:09:30;16.60;61.50
1091;DHT22;534;48.704;9.122;2024-03-22T20:11:55;16.60;61.70
1091;DHT22;534;48.704;9.122;2024-03-22T20:14:22;16.60;61.90
1091;DHT22;534;48.704;9.122;2024-03-22T20:16:49;16.50;61.20
1091;DHT22;534;48.704;9.122;2024-03-22T20:19:16;16.50;61.70
1091;DHT22;534;48.704;9.122;2024-03-22T20:21:41;16.40;61.80
1091;DHT22;534;48.704;9.122;2024-03-22T20:24:08;16.40;62.00
1091;DHT22;534;48.704;9.122;2024-03-22T20:26:35;16.30;62.00
1091;DHT22;534;48.704;9.122;2024-03-22T20:29:02;16.30;61.50
1091;DHT22;534;48.704;9.122;2024-03-22T20:31:28;16.30;61.90
1091;DHT22;534;48.704;9.122;2024-03-22T20:33:55;16.30;62.10
1091;DHT22;534;48.704;9.122;2024-03-22T20:36:20;16.20;62.50
